sensor_id;sensor_type;location;lat;lon;timestamp;P1;durP1;ratioP1;P2;durP2;ratioP2
15667;SDS011;7934;48.710;9.024;2023-03-19T00:00:30;10.13;;;4.97;;
15667;SDS011;7934;48.710;9.024;2023-03-19T00:02:59;8.05;;;6.05;;
15667;SDS011;7934;48.710;9.024;2023-03-19T00:05:26;10.82;;;7.13;;
15667;SDS011;7934;48.710;9.024;2023-03-19T00:07:53;13.20;;;6.97;;
15667;SDS011;7934;48.710;9.024;2023-03-19T00:10:20;9.80;;;6.40;;
15667;SDS011;7934;48.710;9.024;2023-03-19T00:12:48;10.85;;;6.72;;
15667;SDS011;7934;48.710;9.024;2023-03-19T00:15:15;9.18;;;6.60;;
15667;SDS011;7934;48.710;9.024;2023-03-19T00:17:43;9.10;;;6.55;;
15667;SDS011;7934;48.710;9.024;2023-03-19T00:20:12;8.43;;;6.65;;
15667;SDS011;7934;48.710;9.024;2023-03-19T00:22:40;12.48;;;6.03;;
15667;SDS011;7934;48.710;9.024;2023-03-19T00:25:07;7.25;;;5.38;;
15667;SDS011;7934;48.710;9.024;2023-03-19T00:27:34;7.28;;;5.40;;
15667;SDS011;7934;48.710;9.024;2023-03-19T00:30:02;7.88;;;5.95;;
15667;SDS011;7934;48.710;9.024;2023-03-19T00:32:29;7.97;;;5.20;;
15667;SDS011;7934;48.710;9.024;2023-03-19T00:34:57;6.43;;;5.25;;
15667;SDS011;7934;48.710;9.024;2023-03-19T00:37:26;7.97;;;5.32;;
15667;SDS011;7934;48.710;9.024;2023-03-19T00:39:53;10.25;;;5.75;;
15667;SDS011;7934;48.710;9.024;2023-03-19T00:42:20;7.75;;;5.07;;
15667;SDS011;7934;48.710;9.024;2023-03-19T00:44:48;8.30;;;5.50;;
15667;SDS011;7934;48.710;9.024;2023-03-19T00:47:15;8.13;;;6.10;;
15667;SDS011;7934;48.710;9.024;2023-03-19T00:49:42;10.18;;;5.78;;
15667;SDS011;7934;48.710;9.024;2023-03-19T00:52:09;10.80;;;5.85;;
15667;SDS011;7934;48.710;9.024;2023-03-19T00:54:38;7.35;;;5.32;;
15667;SDS011;7934;48.710;9.024;2023-03-19T00:57:06;9.43;;;5.03;;
15667;SDS011;7934;48.710;9.024;2023-03-19T00:59:33;6.28;;;5.15;;
15667;SDS011;7934;48.710;9.024;2023-03-19T01:02:00;7.47;;;4.75;;
15667;SDS011;7934;48.710;9.024;2023-03-19T01:04:27;9.47;;;4.47;;
15667;SDS011;7934;48.710;9.024;2023-03-19T01:06:55;8.57;;;5.35;;
15667;SDS011;7934;48.710;9.024;2023-03-19T01:09:22;10.23;;;5.10;;
15667;SDS011;7934;48.710;9.024;2023-03-19T01:11:51;7.63;;;4.82;;
15667;SDS011;7934;48.710;9.024;2023-03-19T01:14:18;6.30;;;4.25;;
15667;SDS011;7934;48.710;9.024;2023-03-19T01:16:45;5.43;;;4.20;;
15667;SDS011;7934;48.710;9.024;2023-03-19T01:19:12;7.00;;;4.73;;
15667;SDS011;7934;48.710;9.024;2023-03-19T01:21:40;8.15;;;4.47;;
15667;SDS011;7934;48.710;9.024;2023-03-19T01:24:10;9.40;;;5.25;;
15667;SDS011;7934;48.710;9.024;2023-03-19T01:26:37;8.73;;;4.65;;
15667;SDS011;7934;48.710;9.024;2023-03-19T01:29:08;6.80;;;4.70;;
15667;SDS011;7934;48.710;9.024;2023-03-19T01:31:49;5.50;;;4.57;;
15667;SDS011;7934;48.710;9.024;2023-03-19T01:34:16;6.45;;;4.60;;
15667;SDS011;7934;48.710;9.024;2023-03-19T01:36:51;6.95;;;4.60;;
15667;SDS011;7934;48.710;9.024;2023-03-19T01:39:19;5.78;;;4.40;;
15667;SDS011;7934;48.710;9.024;2023-03-19T01:41:48;4.70;;;4.20;;
15667;SDS011;7934;48.710;9.024;2023-03-19T01:44:23;7.03;;;4.60;;
15667;SDS011;7934;48.710;9.024;2023-03-19T01:47:00;6.63;;;4.43;;
15667;SDS011;7934;48.710;9.024;2023-03-19T01:49:29;6.35;;;4.55;;
15667;SDS011;7934;48.710;9.024;2023-03-19T01:52:01;8.48;;;4.97;;
15667;SDS011;7934;48.710;9.024;2023-03-19T01:54:55;4.70;;;4.10;;
15667;SDS011;7934;48.710;9.024;2023-03-19T01:57:23;6.68;;;4.18;;
15667;SDS011;7934;48.710;9.024;2023-03-19T01:59:52;5.45;;;4.22;;
15667;SDS011;7934;48.710;9.024;2023-03-19T02:02:20;7.35;;;4.88;;
15667;SDS011;7934;48.710;9.024;2023-03-19T02:04:50;5.32;;;4.50;;
15667;SDS011;7934;48.710;9.024;2023-03-19T02:07:17;10.93;;;5.20;;
15667;SDS011;7934;48.710;9.024;2023-03-19T02:09:45;8.18;;;5.70;;
15667;SDS011;7934;48.710;9.024;2023-03-19T02:12:12;6.50;;;5.80;;
15667;SDS011;7934;48.710;9.024;2023-03-19T02:14:40;8.80;;;5.65;;
15667;SDS011;7934;48.710;9.024;2023-03-19T02:17:09;6.53;;;5.82;;
15667;SDS011;7934;48.710;9.024;2023-03-19T02:19:39;11.10;;;6.30;;
15667;SDS011;7934;48.710;9.024;2023-03-19T02:22:08;8.43;;;6.63;;
15667;SDS011;7934;48.710;9.024;2023-03-19T02:24:37;9.43;;;6.70;;
15667;SDS011;7934;48.710;9.024;2023-03-19T02:27:08;7.93;;;6.78;;
15667;SDS011;7934;48.710;9.024;2023-03-19T02:29:36;8.23;;;6.80;;
15667;SDS011;7934;48.710;9.024;2023-03-19T02:32:04;10.35;;;6.10;;
15667;SDS011;7934;48.710;9.024;2023-03-19T02:34:32;10.82;;;6.10;;
15667;SDS011;7934;48.710;9.024;2023-03-19T02:37:00;8.65;;;6.35;;
15667;SDS011;7934;48.710;9.024;2023-03-19T02:39:30;9.27;;;6.40;;
15667;SDS011;7934;48.710;9.024;2023-03-19T02:41:58;11.75;;;6.90;;
15667;SDS011;7934;48.710;9.024;2023-03-19T02:44:28;10.73;;;6.82;;
15667;SDS011;7934;48.710;9.024;2023-03-19T02:46:55;10.93;;;7.13;;
15667;SDS011;7934;48.710;9.024;2023-03-19T02:49:23;16.20;;;7.43;;
15667;SDS011;7934;48.710;9.024;2023-03-19T02:51:51;10.55;;;7.40;;
15667;SDS011;7934;48.710;9.024;2023-03-19T02:54:18;12.00;;;7.68;;
15667;SDS011;7934;48.710;9.024;2023-03-19T02:56:45;12.10;;;7.50;;
15667;SDS011;7934;48.710;9.024;2023-03-19T02:59:13;12.30;;;8.10;;
15667;SDS011;7934;48.710;9.024;2023-03-19T03:01:41;11.85;;;8.27;;
15667;SDS011;7934;48.710;9.024;2023-03-19T03:04:09;14.05;;;8.55;;
15667;SDS011;7934;48.710;9.024;2023-03-19T03:06:36;11.50;;;8.30;;
15667;SDS011;7934;48.710;9.024;2023-03-19T03:09:03;12.63;;;8.50;;
15667;SDS011;7934;48.710;9.024;2023-03-19T03:11:30;13.40;;;8.63;;
15667;SDS011;7934;48.710;9.024;2023-03-19T03:13:58;11.07;;;8.57;;
15667;SDS011;7934;48.710;9.024;2023-03-19T03:16:25;12.88;;;8.80;;
15667;SDS011;7934;48.710;9.024;2023-03-19T03:18:54;12.77;;;8.90;;
15667;SDS011;7934;48.710;9.024;2023-03-19T03:21:21;10.80;;;8.63;;
15667;SDS011;7934;48.710;9.024;2023-03-19T03:23:49;13.48;;;8.60;;
15667;SDS011;7934;48.710;9.024;2023-03-19T03:26:17;11.23;;;9.27;;
15667;SDS011;7934;48.710;9.024;2023-03-19T03:28:44;11.68;;;8.73;;
15667;SDS011;7934;48.710;9.024;2023-03-19T03:31:12;11.70;;;8.50;;
15667;SDS011;7934;48.710;9.024;2023-03-19T03:33:39;13.68;;;8.40;;
15667;SDS011;7934;48.710;9.024;2023-03-19T03:36:08;11.80;;;8.23;;
15667;SDS011;7934;48.710;9.024;2023-03-19T03:38:36;14.53;;;8.47;;
15667;SDS011;7934;48.710;9.024;2023-03-19T03:41:04;12.10;;;8.70;;
15667;SDS011;7934;48.710;9.024;2023-03-19T03:43:31;14.85;;;8.90;;
15667;SDS011;7934;48.710;9.024;2023-03-19T03:45:58;14.48;;;9.63;;
15667;SDS011;7934;48.710;9.024;2023-03-19T03:48:26;9.15;;;7.95;;
15667;SDS011;7934;48.710;9.024;2023-03-19T03:50:53;10.93;;;8.52;;
15667;SDS011;7934;48.710;9.024;2023-03-19T03:53:22;14.35;;;9.43;;
15667;SDS011;7934;48.710;9.024;2023-03-19T03:55:49;15.82;;;9.73;;
15667;SDS011;7934;48.710;9.024;2023-03-19T03:58:16;12.63;;;9.30;;
15667;SDS011;7934;48.710;9.024;2023-03-19T04:00:44;12.48;;;9.90;;
15667;SDS011;7934;48.710;9.024;2023-03-19T04:03:11;12.27;;;9.35;;
15667;SDS011;7934;48.710;9.024;2023-03-19T04:05:39;13.48;;;9.32;;
15667;SDS011;7934;48.710;9.024;2023-03-19T04:08:06;15.77;;;10.40;;
15667;SDS011;7934;48.710;9.024;2023-03-19T04:10:37;13.93;;;10.73;;
15667;SDS011;7934;48.710;9.024;2023-03-19T04:13:06;15.25;;;9.80;;
15667;SDS011;7934;48.710;9.024;2023-03-19T04:15:33;11.90;;;10.00;;
15667;SDS011;7934;48.710;9.024;2023-03-19T04:18:00;12.90;;;10.00;;
15667;SDS011;7934;48.710;9.024;2023-03-19T04:20:28;11.98;;;9.82;;
15667;SDS011;7934;48.710;9.024;2023-03-19T04:22:55;12.98;;;10.05;;
15667;SDS011;7934;48.710;9.024;2023-03-19T04:25:22;13.73;;;9.83;;
15667;SDS011;7934;48.710;9.024;2023-03-19T04:27:51;12.20;;;9.00;;
15667;SDS011;7934;48.710;9.024;2023-03-19T04:30:18;13.00;;;9.30;;
15667;SDS011;7934;48.710;9.024;2023-03-19T04:32:45;10.38;;;8.98;;
15667;SDS011;7934;48.710;9.024;2023-03-19T04:35:13;11.90;;;8.82;;
15667;SDS011;7934;48.710;9.024;2023-03-19T04:37:40;9.48;;;8.48;;
15667;SDS011;7934;48.710;9.024;2023-03-19T04:40:13;11.25;;;8.60;;
15667;SDS011;7934;48.710;9.024;2023-03-19T04:42:40;10.45;;;8.20;;
15667;SDS011;7934;48.710;9.024;2023-03-19T04:45:10;8.52;;;7.50;;
15667;SDS011;7934;48.710;9.024;2023-03-19T04:47:38;10.07;;;6.80;;
15667;SDS011;7934;48.710;9.024;2023-03-19T04:50:06;8.77;;;6.57;;
15667;SDS011;7934;48.710;9.024;2023-03-19T04:52:33;8.07;;;6.65;;
15667;SDS011;7934;48.710;9.024;2023-03-19T04:55:01;6.72;;;5.85;;
15667;SDS011;7934;48.710;9.024;2023-03-19T04:57:29;6.93;;;6.20;;
15667;SDS011;7934;48.710;9.024;2023-03-19T04:59:56;6.35;;;5.75;;
15667;SDS011;7934;48.710;9.024;2023-03-19T05:02:25;8.27;;;5.72;;
15667;SDS011;7934;48.710;9.024;2023-03-19T05:04:52;9.35;;;6.32;;
15667;SDS011;7934;48.710;9.024;2023-03-19T05:07:19;6.78;;;6.05;;
15667;SDS011;7934;48.710;9.024;2023-03-19T05:09:46;9.02;;;6.18;;
15667;SDS011;7934;48.710;9.024;2023-03-19T05:12:14;9.50;;;5.93;;
15667;SDS011;7934;48.710;9.024;2023-03-19T05:14:41;7.88;;;6.05;;
15667;SDS011;7934;48.710;9.024;2023-03-19T05:17:08;8.68;;;6.15;;
15667;SDS011;7934;48.710;9.024;2023-03-19T05:19:37;7.35;;;5.88;;
15667;SDS011;7934;48.710;9.024;2023-03-19T05:22:04;7.57;;;5.50;;
15667;SDS011;7934;48.710;9.024;2023-03-19T05:24:31;7.60;;;5.53;;
15667;SDS011;7934;48.710;9.024;2023-03-19T05:26:59;7.90;;;6.07;;
15667;SDS011;7934;48.710;9.024;2023-03-19T05:29:26;8.88;;;5.70;;
15667;SDS011;7934;48.710;9.024;2023-03-19T05:31:56;6.07;;;5.47;;
15667;SDS011;7934;48.710;9.024;2023-03-19T05:34:23;7.45;;;5.57;;
15667;SDS011;7934;48.710;9.024;2023-03-19T05:36:52;8.20;;;6.20;;
15667;SDS011;7934;48.710;9.024;2023-03-19T05:39:20;7.68;;;6.00;;
15667;SDS011;7934;48.710;9.024;2023-03-19T05:41:47;9.02;;;5.55;;
15667;SDS011;7934;48.710;9.024;2023-03-19T05:44:14;7.30;;;5.50;;
15667;SDS011;7934;48.710;9.024;2023-03-19T05:46:41;6.35;;;4.85;;
15667;SDS011;7934;48.710;9.024;2023-03-19T05:49:09;5.97;;;4.70;;
15667;SDS011;7934;48.710;9.024;2023-03-19T05:51:36;6.80;;;5.13;;
15667;SDS011;7934;48.710;9.024;2023-03-19T05:54:05;6.75;;;4.43;;
15667;SDS011;7934;48.710;9.024;2023-03-19T05:56:35;5.80;;;4.43;;
15667;SDS011;7934;48.710;9.024;2023-03-19T05:59:02;6.53;;;4.13;;
15667;SDS011;7934;48.710;9.024;2023-03-19T06:01:30;6.85;;;4.47;;
15667;SDS011;7934;48.710;9.024;2023-03-19T06:03:57;6.90;;;4.38;;
15667;SDS011;7934;48.710;9.024;2023-03-19T06:06:25;6.00;;;4.88;;
15667;SDS011;7934;48.710;9.024;2023-03-19T06:08:52;5.20;;;4.70;;
15667;SDS011;7934;48.710;9.024;2023-03-19T06:11:21;6.25;;;4.70;;
15667;SDS011;7934;48.710;9.024;2023-03-19T06:13:48;6.23;;;5.00;;
15667;SDS011;7934;48.710;9.024;2023-03-19T06:16:15;6.90;;;5.05;;
15667;SDS011;7934;48.710;9.024;2023-03-19T06:18:43;5.47;;;4.63;;
15667;SDS011;7934;48.710;9.024;2023-03-19T06:21:11;6.53;;;4.50;;
15667;SDS011;7934;48.710;9.024;2023-03-19T06:23:38;5.55;;;4.85;;
15667;SDS011;7934;48.710;9.024;2023-03-19T06:26:05;5.38;;;4.75;;
15667;SDS011;7934;48.710;9.024;2023-03-19T06:28:34;5.28;;;4.78;;
15667;SDS011;7934;48.710;9.024;2023-03-19T06:31:01;6.00;;;4.05;;
15667;SDS011;7934;48.710;9.024;2023-03-19T06:33:29;5.32;;;4.00;;
15667;SDS011;7934;48.710;9.024;2023-03-19T06:35:57;5.53;;;4.57;;
15667;SDS011;7934;48.710;9.024;2023-03-19T06:38:25;6.82;;;4.40;;
15667;SDS011;7934;48.710;9.024;2023-03-19T06:40:52;8.63;;;4.90;;
15667;SDS011;7934;48.710;9.024;2023-03-19T06:43:19;4.95;;;4.55;;
15667;SDS011;7934;48.710;9.024;2023-03-19T06:45:48;5.40;;;4.83;;
15667;SDS011;7934;48.710;9.024;2023-03-19T06:48:16;6.28;;;4.78;;
15667;SDS011;7934;48.710;9.024;2023-03-19T06:50:43;5.25;;;4.72;;
15667;SDS011;7934;48.710;9.024;2023-03-19T06:53:11;7.30;;;4.50;;
15667;SDS011;7934;48.710;9.024;2023-03-19T06:55:38;5.45;;;4.32;;
15667;SDS011;7934;48.710;9.024;2023-03-19T06:58:05;4.95;;;3.78;;
15667;SDS011;7934;48.710;9.024;2023-03-19T07:00:33;4.90;;;3.80;;
15667;SDS011;7934;48.710;9.024;2023-03-19T07:03:02;4.68;;;4.20;;
15667;SDS011;7934;48.710;9.024;2023-03-19T07:05:29;4.25;;;3.67;;
15667;SDS011;7934;48.710;9.024;2023-03-19T07:07:56;4.70;;;3.40;;
15667;SDS011;7934;48.710;9.024;2023-03-19T07:10:23;4.07;;;3.10;;
15667;SDS011;7934;48.710;9.024;2023-03-19T07:12:51;4.50;;;3.40;;
15667;SDS011;7934;48.710;9.024;2023-03-19T07:15:18;4.60;;;3.30;;
15667;SDS011;7934;48.710;9.024;2023-03-19T07:17:45;3.47;;;3.13;;
15667;SDS011;7934;48.710;9.024;2023-03-19T07:20:14;3.88;;;2.92;;
15667;SDS011;7934;48.710;9.024;2023-03-19T07:22:41;3.53;;;3.03;;
15667;SDS011;7934;48.710;9.024;2023-03-19T07:25:09;3.80;;;2.92;;
15667;SDS011;7934;48.710;9.024;2023-03-19T07:27:36;3.75;;;2.78;;
15667;SDS011;7934;48.710;9.024;2023-03-19T07:30:03;3.20;;;2.90;;
15667;SDS011;7934;48.710;9.024;2023-03-19T07:32:31;3.72;;;2.60;;
15667;SDS011;7934;48.710;9.024;2023-03-19T07:34:58;3.20;;;2.72;;
15667;SDS011;7934;48.710;9.024;2023-03-19T07:37:26;3.90;;;2.60;;
15667;SDS011;7934;48.710;9.024;2023-03-19T07:39:54;2.85;;;2.53;;
15667;SDS011;7934;48.710;9.024;2023-03-19T07:42:21;2.40;;;2.20;;
15667;SDS011;7934;48.710;9.024;2023-03-19T07:44:48;2.92;;;2.72;;
15667;SDS011;7934;48.710;9.024;2023-03-19T07:47:16;2.67;;;2.33;;
15667;SDS011;7934;48.710;9.024;2023-03-19T07:49:43;4.40;;;2.70;;
15667;SDS011;7934;48.710;9.024;2023-03-19T07:52:10;2.97;;;2.20;;
15667;SDS011;7934;48.710;9.024;2023-03-19T07:54:39;3.03;;;2.45;;
15667;SDS011;7934;48.710;9.024;2023-03-19T07:57:06;4.28;;;2.50;;
15667;SDS011;7934;48.710;9.024;2023-03-19T07:59:34;2.45;;;2.25;;
15667;SDS011;7934;48.710;9.024;2023-03-19T08:02:01;2.47;;;2.25;;
15667;SDS011;7934;48.710;9.024;2023-03-19T08:04:28;2.55;;;2.10;;
15667;SDS011;7934;48.710;9.024;2023-03-19T08:06:55;3.28;;;2.00;;
15667;SDS011;7934;48.710;9.024;2023-03-19T08:09:22;2.63;;;2.30;;
15667;SDS011;7934;48.710;9.024;2023-03-19T08:11:51;2.50;;;2.30;;
15667;SDS011;7934;48.710;9.024;2023-03-19T08:14:18;2.88;;;2.20;;
15667;SDS011;7934;48.710;9.024;2023-03-19T08:16:46;4.93;;;2.50;;
15667;SDS011;7934;48.710;9.024;2023-03-19T08:19:13;2.50;;;2.20;;
15667;SDS011;7934;48.710;9.024;2023-03-19T08:21:41;2.72;;;2.53;;
15667;SDS011;7934;48.710;9.024;2023-03-19T08:24:08;2.20;;;2.10;;
15667;SDS011;7934;48.710;9.024;2023-03-19T08:26:35;3.25;;;2.50;;
15667;SDS011;7934;48.710;9.024;2023-03-19T08:29:04;3.03;;;2.40;;
15667;SDS011;7934;48.710;9.024;2023-03-19T08:31:34;3.15;;;2.40;;
15667;SDS011;7934;48.710;9.024;2023-03-19T08:34:04;2.67;;;2.20;;
15667;SDS011;7934;48.710;9.024;2023-03-19T08:36:38;2.58;;;2.20;;
15667;SDS011;7934;48.710;9.024;2023-03-19T08:39:06;2.10;;;2.00;;
15667;SDS011;7934;48.710;9.024;2023-03-19T08:44:45;3.83;;;2.20;;
15667;SDS011;7934;48.710;9.024;2023-03-19T08:47:15;2.85;;;2.35;;
15667;SDS011;7934;48.710;9.024;2023-03-19T08:49:43;3.53;;;2.50;;
15667;SDS011;7934;48.710;9.024;2023-03-19T08:52:10;2.45;;;2.25;;
15667;SDS011;7934;48.710;9.024;2023-03-19T08:54:42;2.67;;;2.30;;
15667;SDS011;7934;48.710;9.024;2023-03-19T08:57:09;3.42;;;2.28;;
15667;SDS011;7934;48.710;9.024;2023-03-19T08:59:36;2.10;;;2.00;;
15667;SDS011;7934;48.710;9.024;2023-03-19T09:02:05;2.90;;;1.90;;
15667;SDS011;7934;48.710;9.024;2023-03-19T09:04:32;2.72;;;2.05;;
15667;SDS011;7934;48.710;9.024;2023-03-19T09:07:03;2.00;;;1.90;;
15667;SDS011;7934;48.710;9.024;2023-03-19T09:09:40;2.83;;;2.27;;
15667;SDS011;7934;48.710;9.024;2023-03-19T09:12:08;2.60;;;2.20;;
15667;SDS011;7934;48.710;9.024;2023-03-19T09:14:38;2.60;;;2.30;;
15667;SDS011;7934;48.710;9.024;2023-03-19T09:17:14;3.15;;;2.00;;
15667;SDS011;7934;48.710;9.024;2023-03-19T09:19:42;2.95;;;2.00;;
15667;SDS011;7934;48.710;9.024;2023-03-19T09:22:09;2.88;;;2.10;;
15667;SDS011;7934;48.710;9.024;2023-03-19T09:24:36;2.53;;;2.03;;
15667;SDS011;7934;48.710;9.024;2023-03-19T09:27:03;3.40;;;2.00;;
15667;SDS011;7934;48.710;9.024;2023-03-19T09:29:30;2.83;;;2.10;;
15667;SDS011;7934;48.710;9.024;2023-03-19T09:31:58;2.10;;;2.00;;
15667;SDS011;7934;48.710;9.024;2023-03-19T09:34:27;4.25;;;1.85;;
15667;SDS011;7934;48.710;9.024;2023-03-19T09:36:54;1.80;;;1.70;;
15667;SDS011;7934;48.710;9.024;2023-03-19T09:39:21;2.20;;;1.65;;
15667;SDS011;7934;48.710;9.024;2023-03-19T09:41:51;2.10;;;2.00;;
15667;SDS011;7934;48.710;9.024;2023-03-19T09:44:26;2.55;;;1.80;;
15667;SDS011;7934;48.710;9.024;2023-03-19T09:46:55;6.32;;;2.03;;
15667;SDS011;7934;48.710;9.024;2023-03-19T09:49:27;2.00;;;1.90;;
15667;SDS011;7934;48.710;9.024;2023-03-19T09:51:56;3.72;;;2.10;;
15667;SDS011;7934;48.710;9.024;2023-03-19T09:54:27;1.63;;;1.52;;
15667;SDS011;7934;48.710;9.024;2023-03-19T09:56:55;1.73;;;1.63;;
15667;SDS011;7934;48.710;9.024;2023-03-19T09:59:23;2.63;;;2.03;;
15667;SDS011;7934;48.710;9.024;2023-03-19T10:01:52;2.67;;;2.03;;
15667;SDS011;7934;48.710;9.024;2023-03-19T10:07:14;2.15;;;1.92;;
15667;SDS011;7934;48.710;9.024;2023-03-19T10:09:46;2.65;;;1.95;;
15667;SDS011;7934;48.710;9.024;2023-03-19T10:12:19;2.72;;;2.03;;
15667;SDS011;7934;48.710;9.024;2023-03-19T10:17:46;2.20;;;1.87;;
15667;SDS011;7934;48.710;9.024;2023-03-19T10:20:18;2.17;;;1.97;;
15667;SDS011;7934;48.710;9.024;2023-03-19T10:22:50;2.28;;;2.10;;
15667;SDS011;7934;48.710;9.024;2023-03-19T10:25:20;3.90;;;2.08;;
15667;SDS011;7934;48.710;9.024;2023-03-19T10:27:49;3.88;;;2.20;;
15667;SDS011;7934;48.710;9.024;2023-03-19T10:30:19;2.88;;;2.05;;
15667;SDS011;7934;48.710;9.024;2023-03-19T10:32:47;4.20;;;2.20;;
15667;SDS011;7934;48.710;9.024;2023-03-19T10:35:18;2.27;;;2.10;;
15667;SDS011;7934;48.710;9.024;2023-03-19T10:37:46;3.05;;;2.30;;
15667;SDS011;7934;48.710;9.024;2023-03-19T10:40:18;2.92;;;2.22;;
15667;SDS011;7934;48.710;9.024;2023-03-19T10:42:51;3.17;;;2.15;;
15667;SDS011;7934;48.710;9.024;2023-03-19T10:45:21;2.40;;;2.17;;
15667;SDS011;7934;48.710;9.024;2023-03-19T10:47:50;3.00;;;2.00;;
15667;SDS011;7934;48.710;9.024;2023-03-19T10:50:20;3.05;;;2.25;;
15667;SDS011;7934;48.710;9.024;2023-03-19T10:52:49;2.80;;;2.00;;
15667;SDS011;7934;48.710;9.024;2023-03-19T10:55:22;2.40;;;2.00;;
15667;SDS011;7934;48.710;9.024;2023-03-19T10:57:49;3.28;;;2.00;;
15667;SDS011;7934;48.710;9.024;2023-03-19T11:00:18;4.90;;;2.20;;
15667;SDS011;7934;48.710;9.024;2023-03-19T11:02:46;2.83;;;2.22;;
15667;SDS011;7934;48.710;9.024;2023-03-19T11:05:23;3.55;;;2.20;;
15667;SDS011;7934;48.710;9.024;2023-03-19T11:07:54;2.53;;;2.15;;
15667;SDS011;7934;48.710;9.024;2023-03-19T11:10:24;3.13;;;1.92;;
15667;SDS011;7934;48.710;9.024;2023-03-19T11:12:56;2.47;;;2.17;;
15667;SDS011;7934;48.710;9.024;2023-03-19T11:15:26;3.93;;;2.20;;
15667;SDS011;7934;48.710;9.024;2023-03-19T11:17:57;2.08;;;1.92;;
15667;SDS011;7934;48.710;9.024;2023-03-19T11:20:26;2.92;;;2.17;;
15667;SDS011;7934;48.710;9.024;2023-03-19T11:22:54;3.15;;;1.92;;
15667;SDS011;7934;48.710;9.024;2023-03-19T11:25:28;4.35;;;2.20;;
15667;SDS011;7934;48.710;9.024;2023-03-19T11:27:57;3.60;;;2.10;;
15667;SDS011;7934;48.710;9.024;2023-03-19T11:30:25;2.38;;;2.22;;
15667;SDS011;7934;48.710;9.024;2023-03-19T11:33:07;2.28;;;2.08;;
15667;SDS011;7934;48.710;9.024;2023-03-19T11:35:38;2.88;;;2.13;;
15667;SDS011;7934;48.710;9.024;2023-03-19T11:38:09;2.80;;;2.30;;
15667;SDS011;7934;48.710;9.024;2023-03-19T11:40:42;2.80;;;2.20;;
15667;SDS011;7934;48.710;9.024;2023-03-19T11:45:59;3.55;;;2.50;;
15667;SDS011;7934;48.710;9.024;2023-03-19T11:48:34;3.65;;;2.30;;
15667;SDS011;7934;48.710;9.024;2023-03-19T11:51:06;2.40;;;2.20;;
15667;SDS011;7934;48.710;9.024;2023-03-19T11:53:35;3.60;;;1.90;;
15667;SDS011;7934;48.710;9.024;2023-03-19T11:56:07;5.05;;;2.08;;
15667;SDS011;7934;48.710;9.024;2023-03-19T11:58:43;2.92;;;2.33;;
15667;SDS011;7934;48.710;9.024;2023-03-19T12:01:14;4.18;;;2.45;;
15667;SDS011;7934;48.710;9.024;2023-03-19T12:03:50;2.65;;;2.30;;
15667;SDS011;7934;48.710;9.024;2023-03-19T12:06:23;2.28;;;2.08;;
15667;SDS011;7934;48.710;9.024;2023-03-19T12:08:55;2.47;;;2.38;;
15667;SDS011;7934;48.710;9.024;2023-03-19T12:11:28;2.30;;;2.10;;
15667;SDS011;7934;48.710;9.024;2023-03-19T12:14:04;3.15;;;2.47;;
15667;SDS011;7934;48.710;9.024;2023-03-19T12:16:37;4.45;;;2.20;;
15667;SDS011;7934;48.710;9.024;2023-03-19T12:19:30;2.57;;;2.37;;
15667;SDS011;7934;48.710;9.024;2023-03-19T12:22:03;2.40;;;2.20;;
15667;SDS011;7934;48.710;9.024;2023-03-19T12:24:34;2.78;;;2.03;;
15667;SDS011;7934;48.710;9.024;2023-03-19T12:27:11;3.78;;;2.30;;
15667;SDS011;7934;48.710;9.024;2023-03-19T12:29:45;3.35;;;2.05;;
15667;SDS011;7934;48.710;9.024;2023-03-19T12:32:17;2.50;;;2.30;;
15667;SDS011;7934;48.710;9.024;2023-03-19T12:34:47;3.05;;;2.13;;
15667;SDS011;7934;48.710;9.024;2023-03-19T12:37:16;4.27;;;2.30;;
15667;SDS011;7934;48.710;9.024;2023-03-19T12:39:47;2.40;;;2.20;;
15667;SDS011;7934;48.710;9.024;2023-03-19T12:42:17;2.80;;;2.30;;
15667;SDS011;7934;48.710;9.024;2023-03-19T12:47:37;4.87;;;2.10;;
15667;SDS011;7934;48.710;9.024;2023-03-19T12:50:05;8.57;;;2.80;;
15667;SDS011;7934;48.710;9.024;2023-03-19T12:52:36;6.55;;;2.75;;
15667;SDS011;7934;48.710;9.024;2023-03-19T12:55:05;5.60;;;2.92;;
15667;SDS011;7934;48.710;9.024;2023-03-19T12:57:35;4.97;;;2.72;;
15667;SDS011;7934;48.710;9.024;2023-03-19T13:00:05;5.03;;;2.55;;
15667;SDS011;7934;48.710;9.024;2023-03-19T13:02:34;4.63;;;2.72;;
15667;SDS011;7934;48.710;9.024;2023-03-19T13:05:04;6.72;;;2.58;;
15667;SDS011;7934;48.710;9.024;2023-03-19T13:07:34;4.90;;;2.80;;
15667;SDS011;7934;48.710;9.024;2023-03-19T13:10:05;4.25;;;2.55;;
15667;SDS011;7934;48.710;9.024;2023-03-19T13:12:33;4.10;;;2.35;;
15667;SDS011;7934;48.710;9.024;2023-03-19T13:15:04;3.90;;;2.13;;
15667;SDS011;7934;48.710;9.024;2023-03-19T13:17:34;2.80;;;2.10;;
15667;SDS011;7934;48.710;9.024;2023-03-19T13:20:04;2.30;;;2.10;;
15667;SDS011;7934;48.710;9.024;2023-03-19T13:22:34;2.92;;;2.22;;
15667;SDS011;7934;48.710;9.024;2023-03-19T13:25:03;4.78;;;2.03;;
15667;SDS011;7934;48.710;9.024;2023-03-19T13:27:31;2.50;;;2.10;;
15667;SDS011;7934;48.710;9.024;2023-03-19T13:30:00;2.75;;;2.10;;
15667;SDS011;7934;48.710;9.024;2023-03-19T13:32:35;2.92;;;2.10;;
15667;SDS011;7934;48.710;9.024;2023-03-19T13:37:50;3.55;;;2.33;;
15667;SDS011;7934;48.710;9.024;2023-03-19T13:43:03;3.38;;;2.20;;
15667;SDS011;7934;48.710;9.024;2023-03-19T13:45:33;4.18;;;2.13;;
15667;SDS011;7934;48.710;9.024;2023-03-19T13:48:31;4.15;;;2.60;;
15667;SDS011;7934;48.710;9.024;2023-03-19T13:51:02;2.28;;;2.08;;
15667;SDS011;7934;48.710;9.024;2023-03-19T13:53:37;4.03;;;2.33;;
15667;SDS011;7934;48.710;9.024;2023-03-19T13:56:08;3.23;;;2.43;;
15667;SDS011;7934;48.710;9.024;2023-03-19T13:58:46;3.20;;;2.30;;
15667;SDS011;7934;48.710;9.024;2023-03-19T14:01:40;2.90;;;2.20;;
15667;SDS011;7934;48.710;9.024;2023-03-19T14:04:16;2.17;;;2.00;;
15667;SDS011;7934;48.710;9.024;2023-03-19T14:06:47;2.85;;;1.98;;
15667;SDS011;7934;48.710;9.024;2023-03-19T14:09:28;2.28;;;2.08;;
15667;SDS011;7934;48.710;9.024;2023-03-19T14:12:07;2.67;;;1.95;;
15667;SDS011;7934;48.710;9.024;2023-03-19T14:14:40;2.88;;;1.90;;
15667;SDS011;7934;48.710;9.024;2023-03-19T14:17:14;2.20;;;1.75;;
15667;SDS011;7934;48.710;9.024;2023-03-19T14:19:44;2.20;;;1.90;;
15667;SDS011;7934;48.710;9.024;2023-03-19T14:22:18;3.22;;;2.40;;
15667;SDS011;7934;48.710;9.024;2023-03-19T14:24:55;0.50;;;0.50;;
15667;SDS011;7934;48.710;9.024;2023-03-19T14:27:28;0.10;;;0.10;;
15667;SDS011;7934;48.710;9.024;2023-03-19T14:29:56;0.35;;;0.35;;
15667;SDS011;7934;48.710;9.024;2023-03-19T14:32:27;2.20;;;0.70;;
15667;SDS011;7934;48.710;9.024;2023-03-19T14:34:57;1.30;;;0.90;;
15667;SDS011;7934;48.710;9.024;2023-03-19T14:37:26;0.50;;;0.35;;
15667;SDS011;7934;48.710;9.024;2023-03-19T14:40:00;0.40;;;0.10;;
15667;SDS011;7934;48.710;9.024;2023-03-19T14:42:30;1.80;;;0.50;;
15667;SDS011;7934;48.710;9.024;2023-03-19T14:45:06;0.15;;;0.15;;
15667;SDS011;7934;48.710;9.024;2023-03-19T14:50:28;1.00;;;0.20;;
15667;SDS011;7934;48.710;9.024;2023-03-19T14:52:58;0.57;;;0.57;;
15667;SDS011;7934;48.710;9.024;2023-03-19T14:55:31;0.10;;;0.10;;
15667;SDS011;7934;48.710;9.024;2023-03-19T14:57:59;0.25;;;0.25;;
15667;SDS011;7934;48.710;9.024;2023-03-19T15:00:27;0.40;;;0.40;;
15667;SDS011;7934;48.710;9.024;2023-03-19T15:02:54;0.10;;;0.10;;
15667;SDS011;7934;48.710;9.024;2023-03-19T15:05:23;0.35;;;0.32;;
15667;SDS011;7934;48.710;9.024;2023-03-19T15:07:53;0.60;;;0.50;;
15667;SDS011;7934;48.710;9.024;2023-03-19T15:10:22;0.10;;;0.10;;
15667;SDS011;7934;48.710;9.024;2023-03-19T15:15:38;0.70;;;0.70;;
15667;SDS011;7934;48.710;9.024;2023-03-19T15:18:09;0.30;;;0.30;;
15667;SDS011;7934;48.710;9.024;2023-03-19T15:20:37;0.10;;;0.10;;
15667;SDS011;7934;48.710;9.024;2023-03-19T15:23:07;0.20;;;0.20;;
15667;SDS011;7934;48.710;9.024;2023-03-19T15:25:42;0.47;;;0.32;;
15667;SDS011;7934;48.710;9.024;2023-03-19T15:28:10;0.40;;;0.40;;
15667;SDS011;7934;48.710;9.024;2023-03-19T15:30:38;0.30;;;0.30;;
15667;SDS011;7934;48.710;9.024;2023-03-19T15:33:15;0.10;;;0.10;;
15667;SDS011;7934;48.710;9.024;2023-03-19T15:35:43;0.63;;;0.40;;